sensor_id;sensor_type;location;lat;lon;timestamp;P1;durP1;ratioP1;P2;durP2;ratioP2
77415;SDS011;66489;49.230;8.520;2023-11-19T00:02:15;5.05;;;2.92;;
77415;SDS011;66489;49.230;8.520;2023-11-19T00:04:42;5.10;;;2.50;;
77415;SDS011;66489;49.230;8.520;2023-11-19T00:07:09;5.10;;;2.67;;
77415;SDS011;66489;49.230;8.520;2023-11-19T00:09:36;6.55;;;2.50;;
77415;SDS011;66489;49.230;8.520;2023-11-19T00:12:04;5.90;;;2.90;;
77415;SDS011;66489;49.230;8.520;2023-11-19T00:14:31;5.00;;;2.30;;
77415;SDS011;66489;49.230;8.520;2023-11-19T00:16:58;5.90;;;2.65;;
77415;SDS011;66489;49.230;8.520;2023-11-19T00:19:24;5.30;;;2.30;;
77415;SDS011;66489;49.230;8.520;2023-11-19T00:21:52;4.68;;;2.30;;
77415;SDS011;66489;49.230;8.520;2023-11-19T00:24:19;4.32;;;2.40;;
77415;SDS011;66489;49.230;8.520;2023-11-19T00:26:46;4.53;;;2.42;;
77415;SDS011;66489;49.230;8.520;2023-11-19T00:29:13;5.25;;;2.10;;
77415;SDS011;66489;49.230;8.520;2023-11-19T00:31:41;4.55;;;2.38;;
77415;SDS011;66489;49.230;8.520;2023-11-19T00:34:07;3.90;;;2.13;;
77415;SDS011;66489;49.230;8.520;2023-11-19T00:36:34;5.53;;;2.60;;
77415;SDS011;66489;49.230;8.520;2023-11-19T00:39:00;3.42;;;1.88;;
77415;SDS011;66489;49.230;8.520;2023-11-19T00:41:27;5.68;;;2.33;;
77415;SDS011;66489;49.230;8.520;2023-11-19T00:43:54;4.40;;;2.20;;
77415;SDS011;66489;49.230;8.520;2023-11-19T00:46:20;4.28;;;2.10;;
77415;SDS011;66489;49.230;8.520;2023-11-19T00:48:47;4.13;;;2.30;;
77415;SDS011;66489;49.230;8.520;2023-11-19T00:51:13;4.47;;;2.22;;
77415;SDS011;66489;49.230;8.520;2023-11-19T00:53:40;4.65;;;2.20;;
77415;SDS011;66489;49.230;8.520;2023-11-19T00:56:07;6.15;;;2.40;;
77415;SDS011;66489;49.230;8.520;2023-11-19T00:58:41;4.22;;;2.08;;
77415;SDS011;66489;49.230;8.520;2023-11-19T01:01:08;5.00;;;2.05;;
77415;SDS011;66489;49.230;8.520;2023-11-19T01:03:36;3.65;;;2.03;;
77415;SDS011;66489;49.230;8.520;2023-11-19T01:06:03;3.53;;;1.85;;
77415;SDS011;66489;49.230;8.520;2023-11-19T01:08:29;3.65;;;1.88;;
77415;SDS011;66489;49.230;8.520;2023-11-19T01:10:56;4.80;;;1.83;;
77415;SDS011;66489;49.230;8.520;2023-11-19T01:13:23;3.38;;;1.80;;
77415;SDS011;66489;49.230;8.520;2023-11-19T01:15:49;5.35;;;2.00;;
77415;SDS011;66489;49.230;8.520;2023-11-19T01:18:16;6.90;;;2.30;;
77415;SDS011;66489;49.230;8.520;2023-11-19T01:20:43;3.80;;;1.90;;
77415;SDS011;66489;49.230;8.520;2023-11-19T01:23:09;5.57;;;1.80;;
77415;SDS011;66489;49.230;8.520;2023-11-19T01:25:36;3.75;;;2.00;;
77415;SDS011;66489;49.230;8.520;2023-11-19T01:28:04;3.65;;;2.00;;
77415;SDS011;66489;49.230;8.520;2023-11-19T01:30:31;3.03;;;1.77;;
77415;SDS011;66489;49.230;8.520;2023-11-19T01:32:58;3.45;;;1.90;;
77415;SDS011;66489;49.230;8.520;2023-11-19T01:35:24;4.88;;;1.85;;
77415;SDS011;66489;49.230;8.520;2023-11-19T01:37:53;3.85;;;2.17;;
77415;SDS011;66489;49.230;8.520;2023-11-19T01:40:20;3.25;;;1.75;;
77415;SDS011;66489;49.230;8.520;2023-11-19T01:42:47;3.30;;;1.80;;
77415;SDS011;66489;49.230;8.520;2023-11-19T01:45:21;4.07;;;2.00;;
77415;SDS011;66489;49.230;8.520;2023-11-19T01:47:49;4.68;;;2.40;;
77415;SDS011;66489;49.230;8.520;2023-11-19T01:50:15;4.30;;;2.25;;
77415;SDS011;66489;49.230;8.520;2023-11-19T01:52:42;4.13;;;2.28;;
77415;SDS011;66489;49.230;8.520;2023-11-19T01:55:08;5.22;;;1.90;;
77415;SDS011;66489;49.230;8.520;2023-11-19T01:57:36;3.60;;;1.90;;
77415;SDS011;66489;49.230;8.520;2023-11-19T02:00:07;3.67;;;1.92;;
77415;SDS011;66489;49.230;8.520;2023-11-19T02:02:39;4.05;;;2.00;;
77415;SDS011;66489;49.230;8.520;2023-11-19T02:05:07;3.50;;;2.00;;
77415;SDS011;66489;49.230;8.520;2023-11-19T02:07:34;4.63;;;1.95;;
77415;SDS011;66489;49.230;8.520;2023-11-19T02:10:01;4.03;;;2.10;;
77415;SDS011;66489;49.230;8.520;2023-11-19T02:12:28;3.13;;;1.80;;
77415;SDS011;66489;49.230;8.520;2023-11-19T02:14:54;3.35;;;1.80;;
77415;SDS011;66489;49.230;8.520;2023-11-19T02:17:28;3.97;;;1.90;;
77415;SDS011;66489;49.230;8.520;2023-11-19T02:19:57;4.47;;;2.08;;
77415;SDS011;66489;49.230;8.520;2023-11-19T02:22:26;4.55;;;2.00;;
77415;SDS011;66489;49.230;8.520;2023-11-19T02:24:54;4.35;;;2.03;;
77415;SDS011;66489;49.230;8.520;2023-11-19T02:27:29;3.72;;;1.80;;
77415;SDS011;66489;49.230;8.520;2023-11-19T02:30:05;4.20;;;2.10;;
77415;SDS011;66489;49.230;8.520;2023-11-19T02:32:34;3.72;;;1.85;;
77415;SDS011;66489;49.230;8.520;2023-11-19T02:35:02;3.83;;;1.73;;
77415;SDS011;66489;49.230;8.520;2023-11-19T02:37:31;3.97;;;1.80;;
77415;SDS011;66489;49.230;8.520;2023-11-19T02:40:01;3.92;;;2.10;;
77415;SDS011;66489;49.230;8.520;2023-11-19T02:42:29;4.80;;;1.90;;
77415;SDS011;66489;49.230;8.520;2023-11-19T02:44:59;4.78;;;1.85;;
77415;SDS011;66489;49.230;8.520;2023-11-19T02:47:25;5.57;;;1.90;;
77415;SDS011;66489;49.230;8.520;2023-11-19T02:49:56;4.57;;;2.10;;
77415;SDS011;66489;49.230;8.520;2023-11-19T02:52:23;3.55;;;1.85;;
77415;SDS011;66489;49.230;8.520;2023-11-19T02:54:51;3.65;;;2.03;;
77415;SDS011;66489;49.230;8.520;2023-11-19T02:57:18;3.83;;;2.10;;
77415;SDS011;66489;49.230;8.520;2023-11-19T02:59:48;3.80;;;2.03;;
77415;SDS011;66489;49.230;8.520;2023-11-19T03:02:15;3.72;;;2.05;;
77415;SDS011;66489;49.230;8.520;2023-11-19T03:04:44;4.15;;;2.30;;
77415;SDS011;66489;49.230;8.520;2023-11-19T03:07:12;4.32;;;2.20;;
77415;SDS011;66489;49.230;8.520;2023-11-19T03:09:39;4.80;;;2.47;;
77415;SDS011;66489;49.230;8.520;2023-11-19T03:12:07;3.92;;;2.20;;
77415;SDS011;66489;49.230;8.520;2023-11-19T03:14:33;4.05;;;2.42;;
77415;SDS011;66489;49.230;8.520;2023-11-19T03:17:03;4.20;;;2.22;;
77415;SDS011;66489;49.230;8.520;2023-11-19T03:19:31;5.40;;;2.55;;
77415;SDS011;66489;49.230;8.520;2023-11-19T03:21:58;4.68;;;2.50;;
77415;SDS011;66489;49.230;8.520;2023-11-19T03:24:25;4.00;;;2.40;;
77415;SDS011;66489;49.230;8.520;2023-11-19T03:26:52;4.82;;;2.40;;
77415;SDS011;66489;49.230;8.520;2023-11-19T03:29:19;4.43;;;2.50;;
77415;SDS011;66489;49.230;8.520;2023-11-19T03:31:46;5.20;;;2.53;;
77415;SDS011;66489;49.230;8.520;2023-11-19T03:34:12;5.20;;;2.75;;
77415;SDS011;66489;49.230;8.520;2023-11-19T03:36:39;6.93;;;2.65;;
77415;SDS011;66489;49.230;8.520;2023-11-19T03:39:06;4.50;;;2.30;;
77415;SDS011;66489;49.230;8.520;2023-11-19T03:41:33;4.30;;;2.10;;
77415;SDS011;66489;49.230;8.520;2023-11-19T03:44:02;4.07;;;2.15;;
77415;SDS011;66489;49.230;8.520;2023-11-19T03:46:29;4.18;;;2.10;;
77415;SDS011;66489;49.230;8.520;2023-11-19T03:48:56;5.47;;;2.20;;
77415;SDS011;66489;49.230;8.520;2023-11-19T03:51:23;5.07;;;2.20;;
77415;SDS011;66489;49.230;8.520;2023-11-19T03:53:50;4.55;;;2.30;;
77415;SDS011;66489;49.230;8.520;2023-11-19T03:56:16;3.97;;;2.00;;
77415;SDS011;66489;49.230;8.520;2023-11-19T03:58:43;4.55;;;2.40;;
77415;SDS011;66489;49.230;8.520;2023-11-19T04:01:12;4.10;;;2.13;;
77415;SDS011;66489;49.230;8.520;2023-11-19T04:03:42;4.57;;;2.30;;
77415;SDS011;66489;49.230;8.520;2023-11-19T04:06:11;4.30;;;2.30;;
77415;SDS011;66489;49.230;8.520;2023-11-19T04:08:38;5.28;;;2.17;;
77415;SDS011;66489;49.230;8.520;2023-11-19T04:11:04;4.88;;;2.38;;
77415;SDS011;66489;49.230;8.520;2023-11-19T04:13:31;4.38;;;2.47;;
77415;SDS011;66489;49.230;8.520;2023-11-19T04:15:58;5.20;;;2.13;;
77415;SDS011;66489;49.230;8.520;2023-11-19T04:18:25;4.65;;;2.30;;
77415;SDS011;66489;49.230;8.520;2023-11-19T04:20:51;6.25;;;2.80;;
77415;SDS011;66489;49.230;8.520;2023-11-19T04:23:20;4.43;;;2.60;;
77415;SDS011;66489;49.230;8.520;2023-11-19T04:25:47;5.55;;;2.47;;
77415;SDS011;66489;49.230;8.520;2023-11-19T04:28:16;4.20;;;2.50;;
77415;SDS011;66489;49.230;8.520;2023-11-19T04:30:43;4.20;;;2.42;;
77415;SDS011;66489;49.230;8.520;2023-11-19T04:33:10;5.13;;;2.60;;
77415;SDS011;66489;49.230;8.520;2023-11-19T04:35:41;5.13;;;2.80;;
77415;SDS011;66489;49.230;8.520;2023-11-19T04:38:08;4.75;;;2.90;;
77415;SDS011;66489;49.230;8.520;2023-11-19T04:40:34;4.30;;;2.70;;
77415;SDS011;66489;49.230;8.520;2023-11-19T04:43:01;4.65;;;2.72;;
77415;SDS011;66489;49.230;8.520;2023-11-19T04:45:28;5.05;;;2.80;;
77415;SDS011;66489;49.230;8.520;2023-11-19T04:47:54;5.53;;;3.20;;
77415;SDS011;66489;49.230;8.520;2023-11-19T04:50:21;5.20;;;2.63;;
77415;SDS011;66489;49.230;8.520;2023-11-19T04:52:48;7.03;;;2.80;;
77415;SDS011;66489;49.230;8.520;2023-11-19T04:55:14;6.07;;;2.92;;
77415;SDS011;66489;49.230;8.520;2023-11-19T04:57:44;5.25;;;2.60;;
77415;SDS011;66489;49.230;8.520;2023-11-19T05:02:40;6.82;;;2.70;;
77415;SDS011;66489;49.230;8.520;2023-11-19T05:05:07;6.22;;;3.10;;
77415;SDS011;66489;49.230;8.520;2023-11-19T05:07:35;5.88;;;2.97;;
77415;SDS011;66489;49.230;8.520;2023-11-19T05:10:02;5.75;;;3.08;;
77415;SDS011;66489;49.230;8.520;2023-11-19T05:12:30;5.65;;;3.05;;
77415;SDS011;66489;49.230;8.520;2023-11-19T05:15:00;5.45;;;2.72;;
77415;SDS011;66489;49.230;8.520;2023-11-19T05:17:27;7.18;;;2.60;;
77415;SDS011;66489;49.230;8.520;2023-11-19T05:19:54;5.10;;;2.75;;
77415;SDS011;66489;49.230;8.520;2023-11-19T05:22:20;4.57;;;2.50;;
77415;SDS011;66489;49.230;8.520;2023-11-19T05:24:48;6.65;;;2.83;;
77415;SDS011;66489;49.230;8.520;2023-11-19T05:27:16;6.03;;;2.55;;
77415;SDS011;66489;49.230;8.520;2023-11-19T05:29:42;4.38;;;2.38;;
77415;SDS011;66489;49.230;8.520;2023-11-19T05:32:10;4.00;;;2.25;;
77415;SDS011;66489;49.230;8.520;2023-11-19T05:34:37;4.72;;;2.70;;
77415;SDS011;66489;49.230;8.520;2023-11-19T05:37:17;5.10;;;2.60;;
77415;SDS011;66489;49.230;8.520;2023-11-19T05:39:45;5.32;;;2.00;;
77415;SDS011;66489;49.230;8.520;2023-11-19T05:42:11;5.20;;;2.40;;
77415;SDS011;66489;49.230;8.520;2023-11-19T05:44:38;4.63;;;2.10;;
77415;SDS011;66489;49.230;8.520;2023-11-19T05:47:07;4.25;;;2.03;;
77415;SDS011;66489;49.230;8.520;2023-11-19T05:49:34;4.00;;;2.10;;
77415;SDS011;66489;49.230;8.520;2023-11-19T05:52:00;4.00;;;2.00;;
77415;SDS011;66489;49.230;8.520;2023-11-19T05:54:29;3.70;;;1.90;;
77415;SDS011;66489;49.230;8.520;2023-11-19T05:56:57;4.03;;;1.95;;
77415;SDS011;66489;49.230;8.520;2023-11-19T05:59:24;3.85;;;1.80;;
77415;SDS011;66489;49.230;8.520;2023-11-19T06:01:50;4.50;;;1.60;;
77415;SDS011;66489;49.230;8.520;2023-11-19T06:04:17;3.70;;;1.83;;
77415;SDS011;66489;49.230;8.520;2023-11-19T06:06:44;4.25;;;1.67;;
77415;SDS011;66489;49.230;8.520;2023-11-19T06:09:11;4.70;;;1.50;;
77415;SDS011;66489;49.230;8.520;2023-11-19T06:11:39;3.45;;;1.70;;
77415;SDS011;66489;49.230;8.520;2023-11-19T06:14:06;3.05;;;1.40;;
77415;SDS011;66489;49.230;8.520;2023-11-19T06:16:33;3.28;;;1.52;;
77415;SDS011;66489;49.230;8.520;2023-11-19T06:19:00;4.60;;;1.60;;
77415;SDS011;66489;49.230;8.520;2023-11-19T06:21:27;4.85;;;1.50;;
77415;SDS011;66489;49.230;8.520;2023-11-19T06:23:53;3.65;;;1.38;;
77415;SDS011;66489;49.230;8.520;2023-11-19T06:26:22;3.30;;;1.45;;
77415;SDS011;66489;49.230;8.520;2023-11-19T06:28:49;3.47;;;1.75;;
77415;SDS011;66489;49.230;8.520;2023-11-19T06:31:15;3.97;;;1.67;;
77415;SDS011;66489;49.230;8.520;2023-11-19T06:33:42;2.78;;;1.45;;
77415;SDS011;66489;49.230;8.520;2023-11-19T06:36:09;3.10;;;1.40;;
77415;SDS011;66489;49.230;8.520;2023-11-19T06:38:35;3.33;;;1.13;;
77415;SDS011;66489;49.230;8.520;2023-11-19T06:41:05;3.67;;;1.40;;
77415;SDS011;66489;49.230;8.520;2023-11-19T06:43:33;2.70;;;1.13;;
77415;SDS011;66489;49.230;8.520;2023-11-19T06:48:32;2.20;;;1.00;;
77415;SDS011;66489;49.230;8.520;2023-11-19T06:50:59;2.60;;;1.27;;
77415;SDS011;66489;49.230;8.520;2023-11-19T06:53:26;2.40;;;1.20;;
77415;SDS011;66489;49.230;8.520;2023-11-19T06:55:54;2.45;;;1.02;;
77415;SDS011;66489;49.230;8.520;2023-11-19T06:58:21;2.97;;;1.30;;
77415;SDS011;66489;49.230;8.520;2023-11-19T07:00:47;2.40;;;1.10;;
77415;SDS011;66489;49.230;8.520;2023-11-19T07:03:16;2.10;;;1.10;;
77415;SDS011;66489;49.230;8.520;2023-11-19T07:05:42;3.00;;;1.20;;
77415;SDS011;66489;49.230;8.520;2023-11-19T07:08:10;2.70;;;1.30;;
77415;SDS011;66489;49.230;8.520;2023-11-19T07:10:37;2.97;;;1.38;;
77415;SDS011;66489;49.230;8.520;2023-11-19T07:13:04;2.70;;;1.20;;
77415;SDS011;66489;49.230;8.520;2023-11-19T07:15:32;4.00;;;1.40;;
77415;SDS011;66489;49.230;8.520;2023-11-19T07:17:58;2.88;;;1.13;;
77415;SDS011;66489;49.230;8.520;2023-11-19T07:20:28;3.20;;;1.40;;
77415;SDS011;66489;49.230;8.520;2023-11-19T07:22:54;4.28;;;1.40;;
77415;SDS011;66489;49.230;8.520;2023-11-19T07:25:24;3.90;;;2.08;;
77415;SDS011;66489;49.230;8.520;2023-11-19T07:27:51;4.65;;;1.90;;
77415;SDS011;66489;49.230;8.520;2023-11-19T07:30:18;5.65;;;2.35;;
77415;SDS011;66489;49.230;8.520;2023-11-19T07:32:44;4.28;;;1.80;;
77415;SDS011;66489;49.230;8.520;2023-11-19T07:35:11;4.97;;;2.10;;
77415;SDS011;66489;49.230;8.520;2023-11-19T07:37:38;4.40;;;2.40;;
77415;SDS011;66489;49.230;8.520;2023-11-19T07:40:05;5.68;;;2.30;;
77415;SDS011;66489;49.230;8.520;2023-11-19T07:42:32;6.63;;;2.47;;
77415;SDS011;66489;49.230;8.520;2023-11-19T07:44:59;4.65;;;2.17;;
77415;SDS011;66489;49.230;8.520;2023-11-19T07:47:25;4.65;;;2.20;;
77415;SDS011;66489;49.230;8.520;2023-11-19T07:49:52;4.13;;;2.10;;
77415;SDS011;66489;49.230;8.520;2023-11-19T07:52:19;4.50;;;2.15;;
77415;SDS011;66489;49.230;8.520;2023-11-19T07:54:47;4.38;;;1.80;;
77415;SDS011;66489;49.230;8.520;2023-11-19T07:57:14;4.53;;;1.95;;
77415;SDS011;66489;49.230;8.520;2023-11-19T07:59:41;4.10;;;2.10;;
77415;SDS011;66489;49.230;8.520;2023-11-19T08:02:07;4.25;;;2.10;;
77415;SDS011;66489;49.230;8.520;2023-11-19T08:04:34;4.00;;;1.50;;
77415;SDS011;66489;49.230;8.520;2023-11-19T08:07:01;3.58;;;1.77;;
77415;SDS011;66489;49.230;8.520;2023-11-19T08:09:28;3.30;;;1.50;;
77415;SDS011;66489;49.230;8.520;2023-11-19T08:11:54;4.60;;;1.50;;
77415;SDS011;66489;49.230;8.520;2023-11-19T08:14:22;3.80;;;1.40;;
77415;SDS011;66489;49.230;8.520;2023-11-19T08:16:50;2.30;;;1.27;;
77415;SDS011;66489;49.230;8.520;2023-11-19T08:19:17;2.65;;;1.23;;
77415;SDS011;66489;49.230;8.520;2023-11-19T08:21:43;3.25;;;1.20;;
77415;SDS011;66489;49.230;8.520;2023-11-19T08:24:10;2.75;;;1.40;;
77415;SDS011;66489;49.230;8.520;2023-11-19T08:26:36;2.90;;;1.40;;
77415;SDS011;66489;49.230;8.520;2023-11-19T08:29:03;4.38;;;1.38;;
77415;SDS011;66489;49.230;8.520;2023-11-19T08:31:30;3.65;;;1.30;;
77415;SDS011;66489;49.230;8.520;2023-11-19T08:33:56;3.10;;;1.33;;
77415;SDS011;66489;49.230;8.520;2023-11-19T08:36:23;3.00;;;1.70;;
77415;SDS011;66489;49.230;8.520;2023-11-19T08:38:49;2.78;;;1.38;;
77415;SDS011;66489;49.230;8.520;2023-11-19T08:41:18;4.30;;;1.75;;
77415;SDS011;66489;49.230;8.520;2023-11-19T08:43:45;3.88;;;1.70;;
77415;SDS011;66489;49.230;8.520;2023-11-19T08:46:12;5.70;;;2.42;;
77415;SDS011;66489;49.230;8.520;2023-11-19T08:48:39;3.53;;;1.52;;
77415;SDS011;66489;49.230;8.520;2023-11-19T08:51:06;4.10;;;1.90;;
77415;SDS011;66489;49.230;8.520;2023-11-19T08:53:33;4.32;;;1.70;;
77415;SDS011;66489;49.230;8.520;2023-11-19T08:55:59;3.00;;;1.52;;
77415;SDS011;66489;49.230;8.520;2023-11-19T08:58:27;2.63;;;1.20;;
77415;SDS011;66489;49.230;8.520;2023-11-19T09:00:53;5.53;;;1.52;;
77415;SDS011;66489;49.230;8.520;2023-11-19T09:03:20;4.45;;;1.92;;
77415;SDS011;66489;49.230;8.520;2023-11-19T09:05:47;3.90;;;2.00;;
77415;SDS011;66489;49.230;8.520;2023-11-19T09:08:14;4.05;;;2.03;;
77415;SDS011;66489;49.230;8.520;2023-11-19T09:10:40;3.15;;;1.45;;
77415;SDS011;66489;49.230;8.520;2023-11-19T09:13:07;3.00;;;1.52;;
77415;SDS011;66489;49.230;8.520;2023-11-19T09:15:34;3.95;;;1.63;;
77415;SDS011;66489;49.230;8.520;2023-11-19T09:18:00;4.72;;;1.70;;
77415;SDS011;66489;49.230;8.520;2023-11-19T09:20:27;4.43;;;2.10;;
77415;SDS011;66489;49.230;8.520;2023-11-19T09:22:54;4.97;;;1.73;;
77415;SDS011;66489;49.230;8.520;2023-11-19T09:25:20;3.92;;;1.73;;
77415;SDS011;66489;49.230;8.520;2023-11-19T09:27:47;3.70;;;1.50;;
77415;SDS011;66489;49.230;8.520;2023-11-19T09:30:14;3.78;;;1.67;;
77415;SDS011;66489;49.230;8.520;2023-11-19T09:32:40;3.38;;;1.67;;
77415;SDS011;66489;49.230;8.520;2023-11-19T09:35:07;4.05;;;2.10;;
77415;SDS011;66489;49.230;8.520;2023-11-19T09:37:35;5.43;;;1.80;;
77415;SDS011;66489;49.230;8.520;2023-11-19T09:40:01;4.80;;;1.55;;
77415;SDS011;66489;49.230;8.520;2023-11-19T09:42:28;3.33;;;1.83;;
77415;SDS011;66489;49.230;8.520;2023-11-19T09:44:55;3.70;;;1.70;;
77415;SDS011;66489;49.230;8.520;2023-11-19T09:47:22;4.00;;;1.80;;
77415;SDS011;66489;49.230;8.520;2023-11-19T09:49:49;2.88;;;1.48;;
77415;SDS011;66489;49.230;8.520;2023-11-19T09:52:16;3.05;;;1.60;;
77415;SDS011;66489;49.230;8.520;2023-11-19T09:54:43;2.97;;;1.50;;
77415;SDS011;66489;49.230;8.520;2023-11-19T09:57:10;3.30;;;1.60;;
77415;SDS011;66489;49.230;8.520;2023-11-19T09:59:38;3.97;;;1.58;;
77415;SDS011;66489;49.230;8.520;2023-11-19T10:02:05;3.40;;;1.58;;
77415;SDS011;66489;49.230;8.520;2023-11-19T10:04:34;3.20;;;1.57;;
77415;SDS011;66489;49.230;8.520;2023-11-19T10:07:02;4.97;;;1.85;;
77415;SDS011;66489;49.230;8.520;2023-11-19T10:09:29;2.97;;;1.60;;
77415;SDS011;66489;49.230;8.520;2023-11-19T10:11:55;2.95;;;1.50;;
77415;SDS011;66489;49.230;8.520;2023-11-19T10:14:22;4.28;;;1.70;;
77415;SDS011;66489;49.230;8.520;2023-11-19T10:16:50;4.45;;;1.65;;
77415;SDS011;66489;49.230;8.520;2023-11-19T10:19:20;2.65;;;1.30;;
77415;SDS011;66489;49.230;8.520;2023-11-19T10:22:08;3.95;;;1.70;;
77415;SDS011;66489;49.230;8.520;2023-11-19T10:24:34;3.63;;;1.77;;
77415;SDS011;66489;49.230;8.520;2023-11-19T10:27:07;6.93;;;1.80;;
77415;SDS011;66489;49.230;8.520;2023-11-19T10:29:37;5.35;;;1.50;;
77415;SDS011;66489;49.230;8.520;2023-11-19T10:32:04;3.17;;;1.50;;
77415;SDS011;66489;49.230;8.520;2023-11-19T10:34:51;3.20;;;1.75;;
77415;SDS011;66489;49.230;8.520;2023-11-19T10:37:27;5.75;;;2.20;;
77415;SDS011;66489;49.230;8.520;2023-11-19T10:39:56;4.10;;;1.90;;
77415;SDS011;66489;49.230;8.520;2023-11-19T10:42:23;6.07;;;1.90;;
77415;SDS011;66489;49.230;8.520;2023-11-19T10:44:50;4.80;;;2.22;;
77415;SDS011;66489;49.230;8.520;2023-11-19T10:47:18;4.13;;;1.70;;
77415;SDS011;66489;49.230;8.520;2023-11-19T10:49:45;4.43;;;2.00;;
77415;SDS011;66489;49.230;8.520;2023-11-19T10:52:12;10.52;;;1.80;;
77415;SDS011;66489;49.230;8.520;2023-11-19T10:54:44;3.45;;;1.70;;
77415;SDS011;66489;49.230;8.520;2023-11-19T10:57:12;4.13;;;2.22;;
77415;SDS011;66489;49.230;8.520;2023-11-19T10:59:43;2.72;;;1.60;;
77415;SDS011;66489;49.230;8.520;2023-11-19T11:02:12;4.40;;;2.20;;
77415;SDS011;66489;49.230;8.520;2023-11-19T11:04:41;3.15;;;1.67;;
77415;SDS011;66489;49.230;8.520;2023-11-19T11:07:08;3.95;;;1.70;;
77415;SDS011;66489;49.230;8.520;2023-11-19T11:09:35;3.38;;;1.70;;
77415;SDS011;66489;49.230;8.520;2023-11-19T11:12:02;3.35;;;1.73;;
77415;SDS011;66489;49.230;8.520;2023-11-19T11:14:30;3.67;;;1.58;;
77415;SDS011;66489;49.230;8.520;2023-11-19T11:16:57;2.88;;;1.65;;
77415;SDS011;66489;49.230;8.520;2023-11-19T11:19:24;4.13;;;1.83;;
77415;SDS011;66489;49.230;8.520;2023-11-19T11:21:53;3.58;;;1.70;;
77415;SDS011;66489;49.230;8.520;2023-11-19T11:24:33;8.85;;;3.50;;
77415;SDS011;66489;49.230;8.520;2023-11-19T11:32:25;6.80;;;4.13;;
77415;SDS011;66489;49.230;8.520;2023-11-19T11:37:59;5.55;;;2.90;;
77415;SDS011;66489;49.230;8.520;2023-11-19T11:40:28;4.70;;;2.30;;
77415;SDS011;66489;49.230;8.520;2023-11-19T11:42:54;3.80;;;2.20;;
77415;SDS011;66489;49.230;8.520;2023-11-19T11:45:34;4.82;;;2.20;;
77415;SDS011;66489;49.230;8.520;2023-11-19T11:50:46;5.03;;;2.33;;
77415;SDS011;66489;49.230;8.520;2023-11-19T11:53:18;3.95;;;2.50;;
77415;SDS011;66489;49.230;8.520;2023-11-19T11:58:35;4.50;;;2.13;;
77415;SDS011;66489;49.230;8.520;2023-11-19T12:01:03;6.18;;;3.05;;
77415;SDS011;66489;49.230;8.520;2023-11-19T12:03:32;5.68;;;2.40;;
77415;SDS011;66489;49.230;8.520;2023-11-19T12:06:00;8.63;;;2.30;;
77415;SDS011;66489;49.230;8.520;2023-11-19T12:08:27;5.85;;;2.30;;
77415;SDS011;66489;49.230;8.520;2023-11-19T12:10:58;5.20;;;2.10;;
77415;SDS011;66489;49.230;8.520;2023-11-19T12:13:28;4.20;;;2.20;;
77415;SDS011;66489;49.230;8.520;2023-11-19T12:16:09;3.70;;;2.00;;
77415;SDS011;66489;49.230;8.520;2023-11-19T12:18:38;5.45;;;2.67;;
77415;SDS011;66489;49.230;8.520;2023-11-19T12:21:05;5.10;;;2.63;;
77415;SDS011;66489;49.230;8.520;2023-11-19T12:23:33;4.03;;;2.40;;
77415;SDS011;66489;49.230;8.520;2023-11-19T12:26:00;4.60;;;2.58;;
77415;SDS011;66489;49.230;8.520;2023-11-19T12:28:30;4.18;;;2.42;;
77415;SDS011;66489;49.230;8.520;2023-11-19T12:31:07;5.13;;;2.22;;
77415;SDS011;66489;49.230;8.520;2023-11-19T12:33:37;4.18;;;2.40;;
77415;SDS011;66489;49.230;8.520;2023-11-19T12:36:04;4.30;;;2.80;;
77415;SDS011;66489;49.230;8.520;2023-11-19T12:38:32;4.88;;;2.60;;
77415;SDS011;66489;49.230;8.520;2023-11-19T12:41:02;5.38;;;2.70;;
77415;SDS011;66489;49.230;8.520;2023-11-19T12:43:38;4.93;;;2.70;;
77415;SDS011;66489;49.230;8.520;2023-11-19T12:46:19;4.45;;;2.63;;
77415;SDS011;66489;49.230;8.520;2023-11-19T12:48:47;3.95;;;2.65;;
77415;SDS011;66489;49.230;8.520;2023-11-19T12:51:15;4.97;;;2.88;;
77415;SDS011;66489;49.230;8.520;2023-11-19T12:53:51;4.03;;;2.42;;
77415;SDS011;66489;49.230;8.520;2023-11-19T12:56:21;5.35;;;2.80;;
77415;SDS011;66489;49.230;8.520;2023-11-19T12:58:49;5.38;;;2.90;;
77415;SDS011;66489;49.230;8.520;2023-11-19T13:01:17;4.60;;;2.70;;
77415;SDS011;66489;49.230;8.520;2023-11-19T13:04:17;4.03;;;2.63;;
77415;SDS011;66489;49.230;8.520;2023-11-19T13:06:45;4.45;;;2.72;;
77415;SDS011;66489;49.230;8.520;2023-11-19T13:09:30;5.55;;;3.10;;
77415;SDS011;66489;49.230;8.520;2023-11-19T13:11:58;4.47;;;2.78;;
77415;SDS011;66489;49.230;8.520;2023-11-19T13:14:35;8.65;;;3.22;;
77415;SDS011;66489;49.230;8.520;2023-11-19T13:17:03;6.55;;;2.85;;
77415;SDS011;66489;49.230;8.520;2023-11-19T13:19:30;4.13;;;2.70;;
77415;SDS011;66489;49.230;8.520;2023-11-19T13:21:56;4.85;;;2.70;;
77415;SDS011;66489;49.230;8.520;2023-11-19T13:24:23;5.40;;;2.63;;
77415;SDS011;66489;49.230;8.520;2023-11-19T13:26:50;4.75;;;2.70;;
77415;SDS011;66489;49.230;8.520;2023-11-19T13:29:16;4.18;;;2.60;;
77415;SDS011;66489;49.230;8.520;2023-11-19T13:31:43;4.57;;;2.92;;
77415;SDS011;66489;49.230;8.520;2023-11-19T13:34:10;4.70;;;2.53;;
77415;SDS011;66489;49.230;8.520;2023-11-19T13:36:37;4.50;;;2.60;;
77415;SDS011;66489;49.230;8.520;2023-11-19T13:39:04;5.03;;;2.50;;
77415;SDS011;66489;49.230;8.520;2023-11-19T13:41:30;4.30;;;2.53;;
77415;SDS011;66489;49.230;8.520;2023-11-19T13:43:57;6.50;;;2.53;;
77415;SDS011;66489;49.230;8.520;2023-11-19T13:46:23;4.95;;;2.30;;
77415;SDS011;66489;49.230;8.520;2023-11-19T13:48:50;4.38;;;2.25;;
77415;SDS011;66489;49.230;8.520;2023-11-19T13:51:18;3.80;;;2.33;;
77415;SDS011;66489;49.230;8.520;2023-11-19T13:53:44;4.95;;;2.30;;
77415;SDS011;66489;49.230;8.520;2023-11-19T13:56:14;4.90;;;2.17;;
77415;SDS011;66489;49.230;8.520;2023-11-19T13:58:40;5.28;;;2.25;;
77415;SDS011;66489;49.230;8.520;2023-11-19T14:01:07;4.53;;;2.20;;
77415;SDS011;66489;49.230;8.520;2023-11-19T14:03:34;6.13;;;2.40;;
77415;SDS011;66489;49.230;8.520;2023-11-19T14:06:01;4.53;;;2.67;;
77415;SDS011;66489;49.230;8.520;2023-11-19T14:08:29;6.15;;;2.45;;
77415;SDS011;66489;49.230;8.520;2023-11-19T14:10:55;5.93;;;2.30;;
77415;SDS011;66489;49.230;8.520;2023-11-19T14:13:23;3.78;;;2.10;;
77415;SDS011;66489;49.230;8.520;2023-11-19T14:15:50;4.35;;;2.40;;
77415;SDS011;66489;49.230;8.520;2023-11-19T14:18:17;3.80;;;2.10;;
77415;SDS011;66489;49.230;8.520;2023-11-19T14:20:45;5.60;;;2.30;;
77415;SDS011;66489;49.230;8.520;2023-11-19T14:23:12;5.43;;;2.45;;
77415;SDS011;66489;49.230;8.520;2023-11-19T14:25:38;4.45;;;2.25;;
77415;SDS011;66489;49.230;8.520;2023-11-19T14:28:05;3.80;;;2.35;;
77415;SDS011;66489;49.230;8.520;2023-11-19T14:30:32;6.93;;;2.42;;
77415;SDS011;66489;49.230;8.520;2023-11-19T14:33:01;3.88;;;2.20;;
77415;SDS011;66489;49.230;8.520;2023-11-19T14:35:27;6.05;;;2.80;;
77415;SDS011;66489;49.230;8.520;2023-11-19T14:37:56;5.63;;;2.50;;
77415;SDS011;66489;49.230;8.520;2023-11-19T14:40:23;8.30;;;3.38;;
77415;SDS011;66489;49.230;8.520;2023-11-19T14:43:08;12.57;;;6.60;;
77415;SDS011;66489;49.230;8.520;2023-11-19T14:45:37;6.20;;;3.80;;
77415;SDS011;66489;49.230;8.520;2023-11-19T14:48:14;7.30;;;3.40;;
77415;SDS011;66489;49.230;8.520;2023-11-19T14:50:44;4.25;;;2.50;;
77415;SDS011;66489;49.230;8.520;2023-11-19T14:53:11;5.95;;;3.15;;
77415;SDS011;66489;49.230;8.520;2023-11-19T14:55:38;5.60;;;3.40;;
77415;SDS011;66489;49.230;8.520;2023-11-19T14:58:04;6.03;;;3.40;;
77415;SDS011;66489;49.230;8.520;2023-11-19T15:00:37;6.05;;;2.50;;
77415;SDS011;66489;49.230;8.520;2023-11-19T15:03:04;9.73;;;3.05;;
77415;SDS011;66489;49.230;8.520;2023-11-19T15:05:31;6.18;;;2.88;;
77415;SDS011;66489;49.230;8.520;2023-11-19T15:07:58;5.57;;;2.70;;
77415;SDS011;66489;49.230;8.520;2023-11-19T15:10:24;5.57;;;2.75;;
77415;SDS011;66489;49.230;8.520;2023-11-19T15:12:51;7.00;;;3.40;;